Silver Lake, Massachusetts
Current Conditions -  °F | °C
As of 9:52 PM on Tuesday 21 Oct 2014 (Local Time) from KPYM Reporting Station
Overcast Overcast  
Wind Chill: 54°   Ceiling: 800
Heat Index: 54°   Visibility: 8mi
Dew Point: 54°   Wind: 5mph
Humidity: 100%   Direction: 360°N
Pressure: 29.95"   Gusts: NA
Location:  41.9862°N, 70.748°W
Report Text: KPYM 220152Z AUTO 36004KT 8SM OVC008 12/12 A2995 RMK AO2 SLP142 T01220122
Loading
Personal Weather Stations






























Interactive Weather Map
Tropical Storm Tracking
New forecast layout! Learn more

10-Day Weather Forecast

Advertisements
Track Severe Weather on mobile